createdAt,value
2017-09-23T00:02:54.475Z,101827.25
2017-09-23T00:07:58.669Z,101826.70
2017-09-23T00:13:02.615Z,101829.10
2017-09-23T00:18:08.005Z,101830.55
2017-09-23T00:23:13.859Z,101829.48
2017-09-23T00:28:20.472Z,101819.00
2017-09-23T00:33:29.200Z,101819.22
2017-09-23T00:38:32.970Z,101805.20
2017-09-23T00:43:41.400Z,101796.14
2017-09-23T00:48:45.458Z,101799.87
2017-09-23T00:53:54.771Z,101805.98
2017-09-23T00:58:57.494Z,101804.97
2017-09-23T01:03:59.932Z,101805.86
2017-09-23T01:09:08.327Z,101805.41
2017-09-23T01:14:11.550Z,101808.05
2017-09-23T01:19:15.754Z,101802.11
2017-09-23T01:24:19.464Z,101799.41
2017-09-23T01:29:22.028Z,101794.64
2017-09-23T01:34:25.377Z,101791.12
2017-09-23T01:39:27.992Z,101788.16
2017-09-23T01:44:35.518Z,101790.81
2017-09-23T01:49:43.730Z,101791.77
2017-09-23T01:54:47.360Z,101789.43
2017-09-23T01:59:54.238Z,101791.65
2017-09-23T02:05:02.101Z,101793.08
2017-09-23T02:10:04.899Z,101800.67
2017-09-23T02:15:08.604Z,101791.85
2017-09-23T02:20:15.628Z,101801.34
2017-09-23T02:25:20.588Z,101801.12
2017-09-23T02:30:28.398Z,101796.41
2017-09-23T02:35:36.644Z,101780.42
2017-09-23T02:40:39.899Z,101780.98
2017-09-23T02:45:42.521Z,101784.43
2017-09-23T02:50:45.231Z,101787.78
2017-09-23T02:55:48.309Z,101789.10
2017-09-23T03:00:51.355Z,101791.43
2017-09-23T03:05:54.342Z,101791.68
2017-09-23T03:10:56.928Z,101785.84
2017-09-23T03:15:59.476Z,101796.10
2017-09-23T03:21:01.495Z,101790.73
2017-09-23T03:26:04.887Z,101799.16
2017-09-23T03:31:07.316Z,101803.77
2017-09-23T03:36:09.313Z,101805.77
2017-09-23T03:41:11.926Z,101803.56
2017-09-23T03:46:14.339Z,101810.61
2017-09-23T03:51:16.933Z,101809.80
2017-09-23T03:56:19.599Z,101815.69
2017-09-23T04:01:25.848Z,101818.25
2017-09-23T04:06:33.631Z,101836.50
2017-09-23T04:11:37.360Z,101837.63
2017-09-23T04:16:42.419Z,101831.08
2017-09-23T04:21:45.609Z,101834.02
2017-09-23T04:26:48.127Z,101830.91
2017-09-23T04:31:50.607Z,101837.47
2017-09-23T04:36:53.334Z,101838.22
2017-09-23T04:41:55.986Z,101841.53
2017-09-23T04:46:58.964Z,101846.11
2017-09-23T04:52:02.210Z,101847.37
2017-09-23T04:57:04.916Z,101851.95
2017-09-23T05:02:07.077Z,101856.30
2017-09-23T05:07:09.308Z,101861.39
2017-09-23T05:12:12.003Z,101865.97
2017-09-23T05:17:14.668Z,101866.61
2017-09-23T05:22:17.241Z,101881.04
2017-09-23T05:27:19.777Z,101888.99
2017-09-23T05:32:21.754Z,101889.22
2017-09-23T05:37:24.302Z,101895.62
2017-09-23T05:42:27.636Z,101893.50
2017-09-23T05:47:30.342Z,101888.01
2017-09-23T05:52:32.813Z,101894.87
2017-09-23T05:57:35.425Z,101900.02
2017-09-23T06:02:38.039Z,101905.03
2017-09-23T06:07:39.931Z,101888.46
2017-09-23T06:12:42.597Z,101896.30
2017-09-23T06:17:45.351Z,101901.75
2017-09-23T06:22:47.332Z,101903.03
2017-09-23T06:27:49.253Z,101896.86
2017-09-23T06:32:51.174Z,101900.55
2017-09-23T06:37:53.072Z,101896.23
2017-09-23T06:42:54.975Z,101900.72
2017-09-23T06:47:57.007Z,101897.59
2017-09-23T06:52:58.954Z,101901.41
2017-09-23T06:58:00.832Z,101923.80
2017-09-23T07:03:02.830Z,101934.59
2017-09-23T07:08:04.733Z,101944.44
2017-09-23T07:13:07.391Z,101944.98
2017-09-23T07:18:09.354Z,101958.02
2017-09-23T07:23:12.090Z,101965.31
2017-09-23T07:28:14.909Z,101968.69
2017-09-23T07:33:16.809Z,101975.38
2017-09-23T07:38:18.693Z,101977.72
2017-09-23T07:43:20.629Z,101983.70
2017-09-23T07:48:23.250Z,101968.99
2017-09-23T07:53:25.242Z,101983.09
2017-09-23T07:58:27.275Z,101975.89
2017-09-23T08:03:29.945Z,101976.98
2017-09-23T08:08:32.607Z,101972.11
2017-09-23T08:13:35.329Z,101979.81
2017-09-23T08:18:37.256Z,101982.34
2017-09-23T08:23:39.132Z,101985.77
2017-09-23T08:28:41.032Z,101997.31
2017-09-23T08:33:42.965Z,102010.02
2017-09-23T08:38:45.599Z,102002.87
2017-09-23T08:43:47.486Z,102000.02
2017-09-23T08:48:49.372Z,102001.44
2017-09-23T08:53:51.278Z,102000.93
2017-09-23T08:58:53.210Z,101997.70
2017-09-23T09:03:55.868Z,102001.31
2017-09-23T09:08:58.539Z,102004.34
2017-09-23T09:14:00.448Z,101993.98
2017-09-23T09:19:02.374Z,101991.59
2017-09-23T09:24:04.343Z,102002.59
2017-09-23T09:29:06.273Z,101998.13
2017-09-23T09:34:08.190Z,101997.38
2017-09-23T09:39:10.188Z,102005.10
2017-09-23T09:44:12.123Z,101999.87
2017-09-23T09:49:14.060Z,102000.66
2017-09-23T09:54:16.267Z,102004.84
2017-09-23T09:59:18.949Z,101996.06
2017-09-23T10:04:20.886Z,102000.56
2017-09-23T10:09:22.821Z,101989.45
2017-09-23T10:14:25.557Z,101992.38
2017-09-23T10:19:27.812Z,101996.66
2017-09-23T10:24:30.979Z,101976.50
2017-09-23T10:29:32.883Z,101971.61
2017-09-23T10:34:34.816Z,101965.25
2017-09-23T10:39:36.751Z,101963.58
2017-09-23T10:44:38.651Z,101969.70
2017-09-23T10:49:40.574Z,101962.34
2017-09-23T10:54:43.223Z,101955.68
2017-09-23T10:59:45.128Z,101955.97
2017-09-23T11:04:47.011Z,101959.61
2017-09-23T11:09:49.636Z,101959.23
2017-09-23T11:14:53.104Z,101950.31
2017-09-23T11:19:55.137Z,101950.28
2017-09-23T11:24:57.129Z,101953.31
2017-09-23T11:29:59.805Z,101955.05
2017-09-23T11:35:02.500Z,101947.54
2017-09-23T11:40:04.461Z,101933.69
2017-09-23T11:45:06.376Z,101931.39
2017-09-23T11:50:09.067Z,101931.37
2017-09-23T11:55:11.063Z,101926.27
2017-09-23T12:00:12.987Z,101927.97
2017-09-23T12:05:14.915Z,101928.02
2017-09-23T12:10:16.908Z,101928.37
2017-09-23T12:15:18.855Z,101929.44
2017-09-23T12:20:20.852Z,101930.46
2017-09-23T12:25:22.839Z,101924.55
2017-09-23T12:30:24.780Z,101897.44
2017-09-23T12:35:26.880Z,101919.56
2017-09-23T12:40:28.926Z,101921.52
2017-09-23T12:45:30.904Z,101917.27
2017-09-23T12:50:32.872Z,101915.19
2017-09-23T12:55:34.802Z,101923.27
2017-09-23T13:00:36.731Z,101927.20
2017-09-23T13:05:38.663Z,101916.02
2017-09-23T13:10:40.600Z,101919.38
2017-09-23T13:15:42.590Z,101914.17
2017-09-23T13:20:44.582Z,101909.54
2017-09-23T13:25:46.579Z,101912.04
2017-09-23T13:30:48.509Z,101906.14
2017-09-23T13:35:50.415Z,101900.59
2017-09-23T13:40:53.247Z,101896.66
2017-09-23T13:45:55.263Z,101890.44
2017-09-23T13:50:57.272Z,101895.02
2017-09-23T13:55:59.204Z,101897.16
2017-09-23T14:01:01.107Z,101882.31
2017-09-23T14:06:03.102Z,101871.10
2017-09-23T14:11:05.023Z,101884.02
2017-09-23T14:16:10.022Z,101871.79
2017-09-23T14:21:14.359Z,101880.18
2017-09-23T14:26:22.828Z,101870.30
2017-09-23T14:31:28.982Z,101867.37
2017-09-23T14:36:34.577Z,101865.84
2017-09-23T14:41:40.800Z,101852.15
2017-09-23T14:46:45.912Z,101853.59
2017-09-23T14:51:50.800Z,101852.47
2017-09-23T14:56:56.001Z,101850.48
2017-09-23T15:02:02.248Z,101843.44
2017-09-23T15:07:08.540Z,101848.97
2017-09-23T15:12:16.741Z,101842.80
2017-09-23T15:17:20.556Z,101846.05
2017-09-23T15:22:25.844Z,101841.35
2017-09-23T15:27:32.814Z,101846.37
2017-09-23T15:32:38.534Z,101846.28
2017-09-23T15:37:44.709Z,101845.73
2017-09-23T15:42:47.474Z,101851.30
2017-09-23T15:47:52.736Z,101863.55
2017-09-23T15:52:58.235Z,101861.71
2017-09-23T15:58:02.621Z,101861.16
2017-09-23T16:03:08.851Z,101866.73
2017-09-23T16:08:13.419Z,101869.56
2017-09-23T16:13:19.920Z,101864.50
2017-09-23T16:18:24.534Z,101869.42
2017-09-23T16:23:29.146Z,101867.70
2017-09-23T16:28:32.009Z,101867.25
2017-09-23T16:33:37.638Z,101858.06
2017-09-23T16:38:40.568Z,101859.94
2017-09-23T16:43:47.917Z,101857.35
2017-09-23T16:48:55.395Z,101859.47
2017-09-23T16:54:01.836Z,101864.89
2017-09-23T16:59:07.054Z,101856.19
2017-09-23T17:04:11.357Z,101858.02
2017-09-23T17:09:16.985Z,101860.25
2017-09-23T17:14:21.046Z,101855.33
2017-09-23T17:19:28.130Z,101859.27
2017-09-23T17:24:30.339Z,101863.58
2017-09-23T17:29:33.039Z,101862.03
2017-09-23T17:34:36.075Z,101858.15
2017-09-23T17:39:38.505Z,101855.86
2017-09-23T17:44:41.158Z,101855.51
2017-09-23T17:49:43.478Z,101856.86
2017-09-23T17:54:46.172Z,101853.11
2017-09-23T17:59:48.567Z,101852.64
2017-09-23T18:04:50.888Z,101856.69
2017-09-23T18:09:53.225Z,101850.70
2017-09-23T18:14:55.412Z,101853.59
2017-09-23T18:19:59.628Z,101846.70
2017-09-23T18:25:02.035Z,101849.45
2017-09-23T18:30:05.283Z,101847.57
2017-09-23T18:35:07.789Z,101846.50
2017-09-23T18:40:10.246Z,101849.43
2017-09-23T18:45:12.301Z,101843.16
2017-09-23T18:55:22.801Z,101847.31
2017-09-23T19:00:27.989Z,101846.21
2017-09-23T19:05:34.265Z,101859.80
2017-09-23T19:10:41.205Z,101860.19
2017-09-23T19:15:46.413Z,101855.34
2017-09-23T19:20:49.319Z,101851.81
2017-09-23T19:25:55.366Z,101853.90
2017-09-23T19:31:01.220Z,101861.98
2017-09-23T19:36:08.385Z,101854.05
2017-09-23T19:41:12.078Z,101848.67
2017-09-23T19:46:19.853Z,101842.95
2017-09-23T19:51:25.756Z,101846.74
2017-09-23T19:56:30.957Z,101849.28
2017-09-23T20:01:37.776Z,101853.82
2017-09-23T20:06:42.251Z,101851.64
2017-09-23T20:11:48.152Z,101854.95
2017-09-23T20:16:53.869Z,101858.33
2017-09-23T20:22:00.855Z,101855.84
2017-09-23T20:27:06.608Z,101853.72
2017-09-23T20:32:11.926Z,101855.11
2017-09-23T20:37:18.197Z,101851.14
2017-09-23T20:42:22.304Z,101852.16
2017-09-23T20:47:28.704Z,101850.83
2017-09-23T20:52:35.805Z,101848.83
2017-09-23T20:57:39.887Z,101845.94
2017-09-23T21:02:45.026Z,101854.40
2017-09-23T21:07:50.077Z,101865.56
2017-09-23T21:12:57.674Z,101857.66
2017-09-23T21:18:04.363Z,101862.48
2017-09-23T21:23:10.128Z,101862.50
2017-09-23T21:28:14.678Z,101870.25
2017-09-23T21:33:19.172Z,101862.75
2017-09-23T21:38:22.523Z,101863.27
2017-09-23T21:43:25.850Z,101860.59
2017-09-23T21:48:32.545Z,101859.69
2017-09-23T21:53:38.194Z,101855.92
2017-09-23T21:58:44.805Z,101852.23
2017-09-23T22:03:50.580Z,101852.03
2017-09-23T22:08:54.964Z,101845.83
2017-09-23T22:13:59.258Z,101849.47
2017-09-23T22:19:04.296Z,101852.50
2017-09-23T22:24:10.147Z,101851.94
2017-09-23T22:29:15.899Z,101857.80
2017-09-23T22:34:20.662Z,101852.82
2017-09-23T22:39:25.693Z,101855.88
2017-09-23T22:44:31.938Z,101850.53
2017-09-23T22:49:36.401Z,101856.19
2017-09-23T22:54:39.689Z,101856.72
2017-09-23T22:59:46.050Z,101857.30
2017-09-23T23:04:49.508Z,101855.47
2017-09-23T23:09:56.391Z,101855.95
2017-09-23T23:15:04.046Z,101857.17
2017-09-23T23:20:11.742Z,101853.14
2017-09-23T23:25:20.538Z,101853.72
2017-09-23T23:30:23.499Z,101855.58
2017-09-23T23:35:28.390Z,101848.36
2017-09-23T23:40:32.275Z,101841.59
2017-09-23T23:45:39.596Z,101843.98
2017-09-23T23:50:46.381Z,101848.97
2017-09-23T23:55:52.515Z,101848.70
